Terminal Aerodrome Forecast
Issued by NWS Cleveland, OH

Home | Current Version | Previous Version | Graphics & Text | Print | Product List | Glossary On
Versions: 1 2 3 4 5 6 7 8 9 10 11 12 13 14 15 16 17 18
000
FTUS41 KCLE 281700
TAFERI
TAF
KERI 281736Z 2818/2918 36006KT P6SM BKN250
     FM290100 00000KT P6SM SCT200
     FM291000 00000KT 4SM BR SCT200
     FM291400 31005KT P6SM SCT200=

USA.gov is the U.S. government's official web portal to all federal, state and local government web resources and services.